sensor_id;sensor_type;location;lat;lon;timestamp;P1;durP1;ratioP1;P2;durP2;ratioP2
21601;SDS011;10963;50.934;4.668;2023-09-19T00:00:45;13.00;;;2.13;;
21601;SDS011;10963;50.934;4.668;2023-09-19T00:03:14;6.80;;;2.30;;
21601;SDS011;10963;50.934;4.668;2023-09-19T00:05:42;10.47;;;2.30;;
21601;SDS011;10963;50.934;4.668;2023-09-19T00:08:09;7.77;;;1.80;;
21601;SDS011;10963;50.934;4.668;2023-09-19T00:10:35;14.47;;;2.37;;
21601;SDS011;10963;50.934;4.668;2023-09-19T00:13:02;9.03;;;2.20;;
21601;SDS011;10963;50.934;4.668;2023-09-19T00:15:38;10.87;;;2.43;;
21601;SDS011;10963;50.934;4.668;2023-09-19T00:18:06;9.43;;;2.13;;
21601;SDS011;10963;50.934;4.668;2023-09-19T00:20:37;9.30;;;1.97;;
21601;SDS011;10963;50.934;4.668;2023-09-19T00:23:07;10.37;;;1.93;;
21601;SDS011;10963;50.934;4.668;2023-09-19T00:25:38;13.37;;;2.00;;
21601;SDS011;10963;50.934;4.668;2023-09-19T00:28:06;9.37;;;2.27;;
21601;SDS011;10963;50.934;4.668;2023-09-19T00:30:34;11.73;;;2.37;;
21601;SDS011;10963;50.934;4.668;2023-09-19T00:33:00;7.37;;;1.97;;
21601;SDS011;10963;50.934;4.668;2023-09-19T00:35:30;12.90;;;2.10;;
21601;SDS011;10963;50.934;4.668;2023-09-19T00:37:56;8.30;;;1.90;;
21601;SDS011;10963;50.934;4.668;2023-09-19T00:40:22;6.47;;;2.33;;
21601;SDS011;10963;50.934;4.668;2023-09-19T00:42:53;6.67;;;2.10;;
21601;SDS011;10963;50.934;4.668;2023-09-19T00:45:25;5.63;;;1.80;;
21601;SDS011;10963;50.934;4.668;2023-09-19T00:47:53;6.53;;;1.87;;
21601;SDS011;10963;50.934;4.668;2023-09-19T00:50:23;10.90;;;2.17;;
21601;SDS011;10963;50.934;4.668;2023-09-19T00:52:53;8.83;;;2.03;;
21601;SDS011;10963;50.934;4.668;2023-09-19T00:55:23;7.53;;;2.13;;
21601;SDS011;10963;50.934;4.668;2023-09-19T00:57:50;4.27;;;1.67;;
21601;SDS011;10963;50.934;4.668;2023-09-19T01:00:16;6.93;;;1.87;;
21601;SDS011;10963;50.934;4.668;2023-09-19T01:02:46;7.90;;;1.80;;
21601;SDS011;10963;50.934;4.668;2023-09-19T01:05:15;8.10;;;2.50;;
21601;SDS011;10963;50.934;4.668;2023-09-19T01:07:41;11.37;;;2.30;;
21601;SDS011;10963;50.934;4.668;2023-09-19T01:10:14;8.73;;;1.90;;
21601;SDS011;10963;50.934;4.668;2023-09-19T01:29:23;9.03;;;2.43;;
21601;SDS011;10963;50.934;4.668;2023-09-19T01:32:03;10.57;;;2.10;;
21601;SDS011;10963;50.934;4.668;2023-09-19T01:34:44;9.43;;;1.80;;
21601;SDS011;10963;50.934;4.668;2023-09-19T01:37:19;5.87;;;1.90;;
21601;SDS011;10963;50.934;4.668;2023-09-19T01:39:57;8.13;;;2.10;;
21601;SDS011;10963;50.934;4.668;2023-09-19T01:47:49;7.97;;;2.33;;
21601;SDS011;10963;50.934;4.668;2023-09-19T01:53:03;10.87;;;1.97;;
21601;SDS011;10963;50.934;4.668;2023-09-19T01:55:36;9.00;;;2.50;;
21601;SDS011;10963;50.934;4.668;2023-09-19T01:58:15;7.57;;;2.10;;
21601;SDS011;10963;50.934;4.668;2023-09-19T02:00:48;11.07;;;1.87;;
21601;SDS011;10963;50.934;4.668;2023-09-19T02:03:19;11.37;;;2.10;;
21601;SDS011;10963;50.934;4.668;2023-09-19T02:05:50;8.63;;;2.20;;
21601;SDS011;10963;50.934;4.668;2023-09-19T02:08:19;7.70;;;2.30;;
21601;SDS011;10963;50.934;4.668;2023-09-19T02:10:48;8.20;;;1.70;;
21601;SDS011;10963;50.934;4.668;2023-09-19T02:13:18;12.70;;;1.90;;
21601;SDS011;10963;50.934;4.668;2023-09-19T02:15:45;9.87;;;2.43;;
21601;SDS011;10963;50.934;4.668;2023-09-19T02:18:14;9.47;;;2.13;;
21601;SDS011;10963;50.934;4.668;2023-09-19T02:20:42;15.50;;;2.47;;
21601;SDS011;10963;50.934;4.668;2023-09-19T02:23:08;9.53;;;1.87;;
21601;SDS011;10963;50.934;4.668;2023-09-19T02:25:38;9.83;;;2.23;;
21601;SDS011;10963;50.934;4.668;2023-09-19T02:28:04;12.70;;;2.33;;
21601;SDS011;10963;50.934;4.668;2023-09-19T02:30:30;7.33;;;1.83;;
21601;SDS011;10963;50.934;4.668;2023-09-19T02:32:56;10.27;;;2.57;;
21601;SDS011;10963;50.934;4.668;2023-09-19T02:35:22;11.47;;;2.17;;
21601;SDS011;10963;50.934;4.668;2023-09-19T02:37:48;10.27;;;2.03;;
21601;SDS011;10963;50.934;4.668;2023-09-19T02:40:15;12.13;;;2.40;;
21601;SDS011;10963;50.934;4.668;2023-09-19T02:42:53;9.50;;;1.90;;
21601;SDS011;10963;50.934;4.668;2023-09-19T02:45:24;16.03;;;2.20;;
21601;SDS011;10963;50.934;4.668;2023-09-19T02:47:50;7.10;;;2.13;;
21601;SDS011;10963;50.934;4.668;2023-09-19T02:50:18;13.47;;;3.17;;
21601;SDS011;10963;50.934;4.668;2023-09-19T02:52:45;11.50;;;2.30;;
21601;SDS011;10963;50.934;4.668;2023-09-19T02:55:17;10.57;;;1.80;;
21601;SDS011;10963;50.934;4.668;2023-09-19T02:57:48;10.33;;;2.57;;
21601;SDS011;10963;50.934;4.668;2023-09-19T03:00:15;11.63;;;2.00;;
21601;SDS011;10963;50.934;4.668;2023-09-19T03:02:50;8.07;;;1.80;;
21601;SDS011;10963;50.934;4.668;2023-09-19T03:05:19;8.80;;;2.43;;
21601;SDS011;10963;50.934;4.668;2023-09-19T03:07:48;13.67;;;2.43;;
21601;SDS011;10963;50.934;4.668;2023-09-19T03:10:18;6.77;;;2.10;;
21601;SDS011;10963;50.934;4.668;2023-09-19T03:12:45;7.07;;;1.70;;
21601;SDS011;10963;50.934;4.668;2023-09-19T03:15:11;13.03;;;2.47;;
21601;SDS011;10963;50.934;4.668;2023-09-19T03:17:37;9.57;;;2.33;;
21601;SDS011;10963;50.934;4.668;2023-09-19T03:20:12;12.33;;;2.20;;
21601;SDS011;10963;50.934;4.668;2023-09-19T03:22:39;10.07;;;2.27;;
21601;SDS011;10963;50.934;4.668;2023-09-19T03:25:05;7.17;;;1.90;;
21601;SDS011;10963;50.934;4.668;2023-09-19T03:27:39;8.97;;;2.50;;
21601;SDS011;10963;50.934;4.668;2023-09-19T03:30:08;11.87;;;2.03;;
21601;SDS011;10963;50.934;4.668;2023-09-19T03:32:37;10.33;;;2.33;;
21601;SDS011;10963;50.934;4.668;2023-09-19T03:35:08;12.87;;;2.27;;
21601;SDS011;10963;50.934;4.668;2023-09-19T03:37:36;11.87;;;3.33;;
21601;SDS011;10963;50.934;4.668;2023-09-19T03:40:02;12.47;;;3.03;;
21601;SDS011;10963;50.934;4.668;2023-09-19T03:42:34;8.67;;;2.07;;
21601;SDS011;10963;50.934;4.668;2023-09-19T03:45:05;9.73;;;2.00;;
21601;SDS011;10963;50.934;4.668;2023-09-19T03:47:34;7.00;;;2.33;;
21601;SDS011;10963;50.934;4.668;2023-09-19T03:50:00;9.33;;;2.10;;
21601;SDS011;10963;50.934;4.668;2023-09-19T03:52:25;9.70;;;2.30;;
21601;SDS011;10963;50.934;4.668;2023-09-19T03:54:53;6.67;;;1.97;;
21601;SDS011;10963;50.934;4.668;2023-09-19T03:57:19;8.73;;;1.97;;
21601;SDS011;10963;50.934;4.668;2023-09-19T03:59:46;9.63;;;1.90;;
21601;SDS011;10963;50.934;4.668;2023-09-19T04:02:12;7.27;;;1.70;;
21601;SDS011;10963;50.934;4.668;2023-09-19T04:04:49;8.70;;;2.00;;
21601;SDS011;10963;50.934;4.668;2023-09-19T04:07:20;12.10;;;3.43;;
21601;SDS011;10963;50.934;4.668;2023-09-19T04:09:48;9.27;;;1.90;;
21601;SDS011;10963;50.934;4.668;2023-09-19T04:12:18;6.30;;;1.77;;
21601;SDS011;10963;50.934;4.668;2023-09-19T04:14:44;6.80;;;2.00;;
21601;SDS011;10963;50.934;4.668;2023-09-19T04:17:10;7.87;;;1.50;;
21601;SDS011;10963;50.934;4.668;2023-09-19T04:19:36;7.97;;;2.17;;
21601;SDS011;10963;50.934;4.668;2023-09-19T04:22:02;8.53;;;2.10;;
21601;SDS011;10963;50.934;4.668;2023-09-19T04:24:29;7.63;;;2.30;;
21601;SDS011;10963;50.934;4.668;2023-09-19T04:26:55;9.43;;;2.03;;
21601;SDS011;10963;50.934;4.668;2023-09-19T04:29:22;10.93;;;2.00;;
21601;SDS011;10963;50.934;4.668;2023-09-19T04:31:48;7.47;;;2.13;;
21601;SDS011;10963;50.934;4.668;2023-09-19T04:34:19;10.80;;;2.50;;
21601;SDS011;10963;50.934;4.668;2023-09-19T04:36:44;8.77;;;2.03;;
21601;SDS011;10963;50.934;4.668;2023-09-19T04:39:12;15.03;;;2.70;;
21601;SDS011;10963;50.934;4.668;2023-09-19T04:41:38;9.97;;;2.37;;
21601;SDS011;10963;50.934;4.668;2023-09-19T04:44:05;12.40;;;2.13;;
21601;SDS011;10963;50.934;4.668;2023-09-19T04:46:36;11.73;;;1.93;;
21601;SDS011;10963;50.934;4.668;2023-09-19T04:49:02;11.53;;;2.47;;
21601;SDS011;10963;50.934;4.668;2023-09-19T04:51:28;9.50;;;2.50;;
21601;SDS011;10963;50.934;4.668;2023-09-19T04:53:59;9.47;;;2.47;;
21601;SDS011;10963;50.934;4.668;2023-09-19T04:56:25;11.27;;;2.90;;
21601;SDS011;10963;50.934;4.668;2023-09-19T04:58:50;9.10;;;1.90;;
21601;SDS011;10963;50.934;4.668;2023-09-19T05:01:16;6.07;;;2.17;;
21601;SDS011;10963;50.934;4.668;2023-09-19T05:03:42;12.97;;;2.27;;
21601;SDS011;10963;50.934;4.668;2023-09-19T05:06:09;14.07;;;2.50;;
21601;SDS011;10963;50.934;4.668;2023-09-19T05:08:35;7.60;;;2.13;;
21601;SDS011;10963;50.934;4.668;2023-09-19T05:11:04;8.37;;;1.80;;
21601;SDS011;10963;50.934;4.668;2023-09-19T05:13:30;6.20;;;2.20;;
21601;SDS011;10963;50.934;4.668;2023-09-19T05:15:59;7.67;;;2.30;;
21601;SDS011;10963;50.934;4.668;2023-09-19T05:18:27;6.70;;;2.00;;
21601;SDS011;10963;50.934;4.668;2023-09-19T05:20:53;7.60;;;1.77;;
21601;SDS011;10963;50.934;4.668;2023-09-19T05:23:19;7.63;;;2.43;;
21601;SDS011;10963;50.934;4.668;2023-09-19T05:25:46;12.90;;;2.30;;
21601;SDS011;10963;50.934;4.668;2023-09-19T05:28:11;6.03;;;1.80;;
21601;SDS011;10963;50.934;4.668;2023-09-19T05:30:40;9.13;;;2.50;;
21601;SDS011;10963;50.934;4.668;2023-09-19T05:33:08;17.60;;;2.37;;
21601;SDS011;10963;50.934;4.668;2023-09-19T05:35:37;7.73;;;1.83;;
21601;SDS011;10963;50.934;4.668;2023-09-19T05:38:04;8.37;;;2.20;;
21601;SDS011;10963;50.934;4.668;2023-09-19T05:40:34;7.10;;;1.73;;
21601;SDS011;10963;50.934;4.668;2023-09-19T05:43:00;14.07;;;2.00;;
21601;SDS011;10963;50.934;4.668;2023-09-19T05:45:29;7.90;;;2.10;;
21601;SDS011;10963;50.934;4.668;2023-09-19T05:48:05;7.47;;;1.83;;
21601;SDS011;10963;50.934;4.668;2023-09-19T05:50:36;9.60;;;1.90;;
21601;SDS011;10963;50.934;4.668;2023-09-19T05:53:03;11.90;;;2.10;;
21601;SDS011;10963;50.934;4.668;2023-09-19T05:55:34;9.83;;;1.93;;
21601;SDS011;10963;50.934;4.668;2023-09-19T05:58:02;6.37;;;1.87;;
21601;SDS011;10963;50.934;4.668;2023-09-19T06:00:28;10.03;;;2.03;;
21601;SDS011;10963;50.934;4.668;2023-09-19T06:02:55;10.87;;;3.20;;
21601;SDS011;10963;50.934;4.668;2023-09-19T06:05:23;7.17;;;2.10;;
21601;SDS011;10963;50.934;4.668;2023-09-19T06:07:54;6.73;;;1.53;;
21601;SDS011;10963;50.934;4.668;2023-09-19T06:10:20;11.97;;;2.37;;
21601;SDS011;10963;50.934;4.668;2023-09-19T06:12:46;11.77;;;2.27;;
21601;SDS011;10963;50.934;4.668;2023-09-19T06:15:14;10.80;;;2.57;;
21601;SDS011;10963;50.934;4.668;2023-09-19T06:17:51;6.47;;;1.50;;
21601;SDS011;10963;50.934;4.668;2023-09-19T06:20:24;9.43;;;1.97;;
21601;SDS011;10963;50.934;4.668;2023-09-19T06:22:53;7.27;;;2.40;;
21601;SDS011;10963;50.934;4.668;2023-09-19T06:25:21;10.40;;;2.37;;
21601;SDS011;10963;50.934;4.668;2023-09-19T06:27:50;8.93;;;1.90;;
21601;SDS011;10963;50.934;4.668;2023-09-19T06:30:25;10.73;;;3.10;;
21601;SDS011;10963;50.934;4.668;2023-09-19T06:32:58;5.83;;;1.73;;
21601;SDS011;10963;50.934;4.668;2023-09-19T06:35:28;14.77;;;2.30;;
21601;SDS011;10963;50.934;4.668;2023-09-19T06:37:57;7.53;;;1.93;;
21601;SDS011;10963;50.934;4.668;2023-09-19T06:40:23;3.77;;;1.77;;
21601;SDS011;10963;50.934;4.668;2023-09-19T06:42:52;8.03;;;1.90;;
21601;SDS011;10963;50.934;4.668;2023-09-19T06:45:19;7.37;;;1.73;;
21601;SDS011;10963;50.934;4.668;2023-09-19T06:47:46;11.63;;;2.37;;
21601;SDS011;10963;50.934;4.668;2023-09-19T06:50:25;8.47;;;2.00;;
21601;SDS011;10963;50.934;4.668;2023-09-19T06:52:54;10.60;;;2.27;;
21601;SDS011;10963;50.934;4.668;2023-09-19T06:55:22;7.87;;;1.87;;
21601;SDS011;10963;50.934;4.668;2023-09-19T06:57:53;7.97;;;1.77;;
21601;SDS011;10963;50.934;4.668;2023-09-19T07:00:19;10.13;;;2.13;;
21601;SDS011;10963;50.934;4.668;2023-09-19T07:03:04;16.70;;;2.30;;
21601;SDS011;10963;50.934;4.668;2023-09-19T07:05:33;5.77;;;2.07;;
21601;SDS011;10963;50.934;4.668;2023-09-19T07:08:03;10.50;;;1.97;;
21601;SDS011;10963;50.934;4.668;2023-09-19T07:10:33;4.53;;;1.83;;
21601;SDS011;10963;50.934;4.668;2023-09-19T07:15:26;6.83;;;1.77;;
21601;SDS011;10963;50.934;4.668;2023-09-19T07:17:52;9.20;;;2.07;;
21601;SDS011;10963;50.934;4.668;2023-09-19T07:20:19;7.30;;;2.03;;
21601;SDS011;10963;50.934;4.668;2023-09-19T07:22:45;12.07;;;2.17;;
21601;SDS011;10963;50.934;4.668;2023-09-19T07:25:15;11.27;;;1.87;;
21601;SDS011;10963;50.934;4.668;2023-09-19T07:27:43;10.77;;;2.30;;
21601;SDS011;10963;50.934;4.668;2023-09-19T07:30:10;9.47;;;1.93;;
21601;SDS011;10963;50.934;4.668;2023-09-19T07:32:37;10.13;;;2.00;;
21601;SDS011;10963;50.934;4.668;2023-09-19T07:35:03;10.30;;;1.70;;
21601;SDS011;10963;50.934;4.668;2023-09-19T07:37:33;8.13;;;1.80;;
21601;SDS011;10963;50.934;4.668;2023-09-19T07:40:07;7.87;;;2.43;;
21601;SDS011;10963;50.934;4.668;2023-09-19T07:42:36;8.23;;;2.00;;
21601;SDS011;10963;50.934;4.668;2023-09-19T07:45:06;9.70;;;2.43;;
21601;SDS011;10963;50.934;4.668;2023-09-19T07:47:33;7.53;;;2.03;;
21601;SDS011;10963;50.934;4.668;2023-09-19T07:50:04;11.90;;;1.80;;
21601;SDS011;10963;50.934;4.668;2023-09-19T07:52:32;8.30;;;2.10;;
21601;SDS011;10963;50.934;4.668;2023-09-19T07:54:58;6.03;;;1.53;;
21601;SDS011;10963;50.934;4.668;2023-09-19T07:57:26;9.20;;;1.90;;
21601;SDS011;10963;50.934;4.668;2023-09-19T07:59:53;8.63;;;2.30;;
21601;SDS011;10963;50.934;4.668;2023-09-19T08:02:24;8.43;;;2.50;;
21601;SDS011;10963;50.934;4.668;2023-09-19T08:04:53;7.73;;;2.07;;
21601;SDS011;10963;50.934;4.668;2023-09-19T08:07:19;10.07;;;2.00;;
21601;SDS011;10963;50.934;4.668;2023-09-19T08:09:45;10.40;;;2.27;;
21601;SDS011;10963;50.934;4.668;2023-09-19T08:12:13;8.43;;;1.90;;
21601;SDS011;10963;50.934;4.668;2023-09-19T08:14:40;9.03;;;2.67;;
21601;SDS011;10963;50.934;4.668;2023-09-19T08:17:08;11.60;;;3.07;;
21601;SDS011;10963;50.934;4.668;2023-09-19T08:19:34;9.13;;;2.20;;
21601;SDS011;10963;50.934;4.668;2023-09-19T08:22:01;10.37;;;2.03;;
21601;SDS011;10963;50.934;4.668;2023-09-19T08:24:28;13.17;;;2.10;;
21601;SDS011;10963;50.934;4.668;2023-09-19T08:26:57;5.90;;;1.93;;
21601;SDS011;10963;50.934;4.668;2023-09-19T08:29:23;7.67;;;1.90;;
21601;SDS011;10963;50.934;4.668;2023-09-19T08:31:56;12.07;;;1.80;;
21601;SDS011;10963;50.934;4.668;2023-09-19T08:34:22;11.93;;;2.53;;
21601;SDS011;10963;50.934;4.668;2023-09-19T08:36:55;4.33;;;1.90;;
21601;SDS011;10963;50.934;4.668;2023-09-19T08:39:24;8.83;;;1.90;;
21601;SDS011;10963;50.934;4.668;2023-09-19T08:42:01;9.80;;;2.43;;
21601;SDS011;10963;50.934;4.668;2023-09-19T08:44:28;7.63;;;1.97;;
21601;SDS011;10963;50.934;4.668;2023-09-19T08:47:05;8.93;;;1.90;;
21601;SDS011;10963;50.934;4.668;2023-09-19T08:52:28;7.60;;;1.73;;
21601;SDS011;10963;50.934;4.668;2023-09-19T08:55:06;13.13;;;2.43;;
21601;SDS011;10963;50.934;4.668;2023-09-19T08:57:36;7.90;;;1.93;;
21601;SDS011;10963;50.934;4.668;2023-09-19T09:00:07;6.27;;;1.80;;
21601;SDS011;10963;50.934;4.668;2023-09-19T09:02:39;9.10;;;1.70;;
21601;SDS011;10963;50.934;4.668;2023-09-19T09:05:07;12.63;;;2.50;;
21601;SDS011;10963;50.934;4.668;2023-09-19T09:07:35;11.57;;;2.10;;
21601;SDS011;10963;50.934;4.668;2023-09-19T09:10:05;6.33;;;2.47;;
21601;SDS011;10963;50.934;4.668;2023-09-19T09:12:32;8.50;;;2.23;;
21601;SDS011;10963;50.934;4.668;2023-09-19T09:15:04;7.77;;;2.27;;
21601;SDS011;10963;50.934;4.668;2023-09-19T09:17:31;8.43;;;2.00;;
21601;SDS011;10963;50.934;4.668;2023-09-19T09:19:57;4.90;;;1.80;;
21601;SDS011;10963;50.934;4.668;2023-09-19T09:22:25;7.07;;;1.83;;
21601;SDS011;10963;50.934;4.668;2023-09-19T09:27:19;8.47;;;1.97;;
21601;SDS011;10963;50.934;4.668;2023-09-19T09:34:46;9.90;;;2.27;;
21601;SDS011;10963;50.934;4.668;2023-09-19T09:37:17;8.97;;;1.57;;
21601;SDS011;10963;50.934;4.668;2023-09-19T09:42:35;5.67;;;1.57;;
21601;SDS011;10963;50.934;4.668;2023-09-19T09:45:13;13.10;;;2.00;;
21601;SDS011;10963;50.934;4.668;2023-09-19T09:47:41;9.77;;;2.33;;
21601;SDS011;10963;50.934;4.668;2023-09-19T09:50:22;6.60;;;1.70;;
21601;SDS011;10963;50.934;4.668;2023-09-19T09:53:05;11.33;;;1.70;;
21601;SDS011;10963;50.934;4.668;2023-09-19T09:58:25;9.73;;;1.77;;
21601;SDS011;10963;50.934;4.668;2023-09-19T10:00:57;6.37;;;1.67;;
21601;SDS011;10963;50.934;4.668;2023-09-19T10:03:40;9.63;;;1.37;;
21601;SDS011;10963;50.934;4.668;2023-09-19T10:06:15;7.80;;;1.37;;
21601;SDS011;10963;50.934;4.668;2023-09-19T10:09:04;7.87;;;1.70;;
21601;SDS011;10963;50.934;4.668;2023-09-19T10:11:43;7.53;;;1.90;;
21601;SDS011;10963;50.934;4.668;2023-09-19T10:14:15;6.77;;;1.50;;
21601;SDS011;10963;50.934;4.668;2023-09-19T10:16:48;7.70;;;1.47;;
21601;SDS011;10963;50.934;4.668;2023-09-19T10:19:23;5.97;;;1.87;;
21601;SDS011;10963;50.934;4.668;2023-09-19T10:22:01;3.33;;;1.10;;
21601;SDS011;10963;50.934;4.668;2023-09-19T10:24:29;4.77;;;1.07;;
21601;SDS011;10963;50.934;4.668;2023-09-19T10:26:56;4.23;;;1.70;;
21601;SDS011;10963;50.934;4.668;2023-09-19T10:29:22;4.30;;;1.43;;
21601;SDS011;10963;50.934;4.668;2023-09-19T10:31:51;5.03;;;1.70;;
21601;SDS011;10963;50.934;4.668;2023-09-19T10:34:20;4.33;;;1.83;;
21601;SDS011;10963;50.934;4.668;2023-09-19T10:36:51;5.80;;;1.60;;
21601;SDS011;10963;50.934;4.668;2023-09-19T10:39:20;10.33;;;1.63;;
21601;SDS011;10963;50.934;4.668;2023-09-19T10:41:53;4.73;;;1.50;;
21601;SDS011;10963;50.934;4.668;2023-09-19T10:44:24;4.37;;;1.40;;
21601;SDS011;10963;50.934;4.668;2023-09-19T10:46:53;7.07;;;1.33;;
21601;SDS011;10963;50.934;4.668;2023-09-19T10:49:20;8.07;;;1.00;;
21601;SDS011;10963;50.934;4.668;2023-09-19T10:51:46;3.43;;;1.10;;
21601;SDS011;10963;50.934;4.668;2023-09-19T10:54:18;5.60;;;1.10;;
21601;SDS011;10963;50.934;4.668;2023-09-19T10:56:51;9.57;;;1.60;;
21601;SDS011;10963;50.934;4.668;2023-09-19T10:59:23;3.70;;;1.07;;
21601;SDS011;10963;50.934;4.668;2023-09-19T11:01:55;4.43;;;1.10;;
21601;SDS011;10963;50.934;4.668;2023-09-19T11:04:27;2.80;;;1.00;;
21601;SDS011;10963;50.934;4.668;2023-09-19T11:07:10;6.33;;;1.10;;
21601;SDS011;10963;50.934;4.668;2023-09-19T11:12:08;5.37;;;1.00;;
21601;SDS011;10963;50.934;4.668;2023-09-19T11:14:39;5.17;;;1.43;;
21601;SDS011;10963;50.934;4.668;2023-09-19T11:30:41;4.63;;;0.90;;
21601;SDS011;10963;50.934;4.668;2023-09-19T11:33:26;3.73;;;1.17;;
21601;SDS011;10963;50.934;4.668;2023-09-19T11:44:38;4.10;;;1.00;;
21601;SDS011;10963;50.934;4.668;2023-09-19T11:49:18;3.23;;;1.00;;
21601;SDS011;10963;50.934;4.668;2023-09-19T11:51:51;3.27;;;1.10;;
21601;SDS011;10963;50.934;4.668;2023-09-19T11:54:17;3.40;;;1.00;;
21601;SDS011;10963;50.934;4.668;2023-09-19T11:56:44;2.87;;;0.87;;
21601;SDS011;10963;50.934;4.668;2023-09-19T11:59:11;3.57;;;1.10;;
21601;SDS011;10963;50.934;4.668;2023-09-19T12:01:50;4.47;;;1.00;;
21601;SDS011;10963;50.934;4.668;2023-09-19T12:04:33;3.63;;;0.90;;
21601;SDS011;10963;50.934;4.668;2023-09-19T12:07:12;4.40;;;1.20;;
21601;SDS011;10963;50.934;4.668;2023-09-19T12:12:28;2.90;;;1.17;;
21601;SDS011;10963;50.934;4.668;2023-09-19T12:15:00;4.40;;;0.90;;
21601;SDS011;10963;50.934;4.668;2023-09-19T12:17:38;2.90;;;0.80;;
21601;SDS011;10963;50.934;4.668;2023-09-19T12:20:06;3.33;;;1.00;;
21601;SDS011;10963;50.934;4.668;2023-09-19T12:22:41;3.37;;;0.80;;
21601;SDS011;10963;50.934;4.668;2023-09-19T12:25:09;4.90;;;1.00;;
21601;SDS011;10963;50.934;4.668;2023-09-19T12:27:42;4.00;;;1.10;;
21601;SDS011;10963;50.934;4.668;2023-09-19T12:30:13;5.07;;;1.20;;
21601;SDS011;10963;50.934;4.668;2023-09-19T12:32:40;1.77;;;0.90;;
21601;SDS011;10963;50.934;4.668;2023-09-19T12:35:07;3.17;;;1.40;;
21601;SDS011;10963;50.934;4.668;2023-09-19T12:37:44;3.17;;;0.80;;
21601;SDS011;10963;50.934;4.668;2023-09-19T12:40:18;4.80;;;1.10;;
21601;SDS011;10963;50.934;4.668;2023-09-19T12:42:53;2.83;;;1.03;;
21601;SDS011;10963;50.934;4.668;2023-09-19T12:45:31;1.37;;;0.73;;
21601;SDS011;10963;50.934;4.668;2023-09-19T12:51:09;1.00;;;0.70;;
21601;SDS011;10963;50.934;4.668;2023-09-19T12:53:41;3.40;;;1.03;;
21601;SDS011;10963;50.934;4.668;2023-09-19T12:56:16;4.43;;;1.00;;
21601;SDS011;10963;50.934;4.668;2023-09-19T12:58:49;4.03;;;0.80;;
21601;SDS011;10963;50.934;4.668;2023-09-19T13:01:18;3.33;;;0.87;;
21601;SDS011;10963;50.934;4.668;2023-09-19T13:03:44;6.70;;;1.10;;
21601;SDS011;10963;50.934;4.668;2023-09-19T13:06:11;6.27;;;1.23;;
21601;SDS011;10963;50.934;4.668;2023-09-19T13:08:38;4.87;;;1.03;;
21601;SDS011;10963;50.934;4.668;2023-09-19T13:11:08;3.10;;;0.80;;
21601;SDS011;10963;50.934;4.668;2023-09-19T13:16:05;2.40;;;0.90;;
21601;SDS011;10963;50.934;4.668;2023-09-19T13:18:43;3.30;;;0.93;;
21601;SDS011;10963;50.934;4.668;2023-09-19T13:21:29;3.87;;;1.00;;
21601;SDS011;10963;50.934;4.668;2023-09-19T13:26:48;2.77;;;1.10;;
21601;SDS011;10963;50.934;4.668;2023-09-19T13:29:14;2.50;;;0.73;;
21601;SDS011;10963;50.934;4.668;2023-09-19T13:31:46;2.73;;;1.27;;
21601;SDS011;10963;50.934;4.668;2023-09-19T13:34:18;2.63;;;1.27;;
21601;SDS011;10963;50.934;4.668;2023-09-19T13:36:44;5.60;;;1.13;;
21601;SDS011;10963;50.934;4.668;2023-09-19T13:39:13;6.70;;;1.00;;
21601;SDS011;10963;50.934;4.668;2023-09-19T13:41:41;6.33;;;1.40;;
21601;SDS011;10963;50.934;4.668;2023-09-19T13:44:08;6.33;;;1.10;;
21601;SDS011;10963;50.934;4.668;2023-09-19T13:46:35;3.97;;;1.00;;
21601;SDS011;10963;50.934;4.668;2023-09-19T13:49:02;3.23;;;1.40;;
21601;SDS011;10963;50.934;4.668;2023-09-19T13:51:31;7.47;;;1.10;;
21601;SDS011;10963;50.934;4.668;2023-09-19T13:53:57;5.67;;;1.10;;
21601;SDS011;10963;50.934;4.668;2023-09-19T13:56:28;2.10;;;0.83;;
21601;SDS011;10963;50.934;4.668;2023-09-19T13:58:55;5.47;;;1.13;;
21601;SDS011;10963;50.934;4.668;2023-09-19T14:01:20;1.57;;;0.83;;
21601;SDS011;10963;50.934;4.668;2023-09-19T14:03:48;4.87;;;0.90;;
21601;SDS011;10963;50.934;4.668;2023-09-19T14:06:16;3.90;;;1.00;;
21601;SDS011;10963;50.934;4.668;2023-09-19T14:08:43;2.10;;;0.80;;
21601;SDS011;10963;50.934;4.668;2023-09-19T14:11:13;3.67;;;1.07;;
21601;SDS011;10963;50.934;4.668;2023-09-19T14:13:43;2.37;;;1.00;;
21601;SDS011;10963;50.934;4.668;2023-09-19T14:16:12;3.13;;;1.17;;
21601;SDS011;10963;50.934;4.668;2023-09-19T14:18:37;3.37;;;1.43;;
21601;SDS011;10963;50.934;4.668;2023-09-19T14:21:04;2.97;;;0.97;;
21601;SDS011;10963;50.934;4.668;2023-09-19T14:23:40;4.40;;;0.90;;
21601;SDS011;10963;50.934;4.668;2023-09-19T14:26:11;4.80;;;1.23;;
21601;SDS011;10963;50.934;4.668;2023-09-19T14:28:37;4.37;;;1.20;;
21601;SDS011;10963;50.934;4.668;2023-09-19T14:31:06;4.90;;;1.50;;
21601;SDS011;10963;50.934;4.668;2023-09-19T14:33:36;4.47;;;1.50;;
21601;SDS011;10963;50.934;4.668;2023-09-19T14:36:06;5.37;;;1.03;;
21601;SDS011;10963;50.934;4.668;2023-09-19T14:38:34;1.90;;;1.23;;
21601;SDS011;10963;50.934;4.668;2023-09-19T14:41:04;3.93;;;1.10;;
21601;SDS011;10963;50.934;4.668;2023-09-19T14:43:31;2.10;;;0.80;;
21601;SDS011;10963;50.934;4.668;2023-09-19T14:48:32;2.20;;;1.17;;
21601;SDS011;10963;50.934;4.668;2023-09-19T14:51:02;3.13;;;1.30;;
21601;SDS011;10963;50.934;4.668;2023-09-19T14:53:29;4.17;;;1.50;;
21601;SDS011;10963;50.934;4.668;2023-09-19T14:55:55;2.33;;;1.00;;
21601;SDS011;10963;50.934;4.668;2023-09-19T14:58:24;2.40;;;1.30;;
21601;SDS011;10963;50.934;4.668;2023-09-19T15:00:51;3.67;;;1.07;;
21601;SDS011;10963;50.934;4.668;2023-09-19T15:03:19;5.50;;;1.23;;
21601;SDS011;10963;50.934;4.668;2023-09-19T15:05:47;6.37;;;1.27;;
21601;SDS011;10963;50.934;4.668;2023-09-19T15:08:16;3.93;;;1.23;;
21601;SDS011;10963;50.934;4.668;2023-09-19T15:10:48;4.50;;;1.43;;
21601;SDS011;10963;50.934;4.668;2023-09-19T15:13:18;4.00;;;1.50;;
21601;SDS011;10963;50.934;4.668;2023-09-19T15:15:46;6.10;;;1.50;;
21601;SDS011;10963;50.934;4.668;2023-09-19T15:18:13;3.20;;;1.47;;
21601;SDS011;10963;50.934;4.668;2023-09-19T15:20:43;4.10;;;1.43;;
21601;SDS011;10963;50.934;4.668;2023-09-19T15:23:12;2.87;;;1.43;;
21601;SDS011;10963;50.934;4.668;2023-09-19T15:25:38;2.20;;;1.50;;
21601;SDS011;10963;50.934;4.668;2023-09-19T15:28:06;3.53;;;1.53;;
21601;SDS011;10963;50.934;4.668;2023-09-19T15:30:37;1.80;;;1.20;;
21601;SDS011;10963;50.934;4.668;2023-09-19T15:33:03;4.17;;;1.30;;
21601;SDS011;10963;50.934;4.668;2023-09-19T15:35:31;4.83;;;1.23;;
21601;SDS011;10963;50.934;4.668;2023-09-19T15:38:02;8.57;;;1.63;;
21601;SDS011;10963;50.934;4.668;2023-09-19T15:40:33;3.60;;;1.33;;
21601;SDS011;10963;50.934;4.668;2023-09-19T15:42:59;3.73;;;1.07;;
21601;SDS011;10963;50.934;4.668;2023-09-19T15:45:28;6.40;;;1.20;;
21601;SDS011;10963;50.934;4.668;2023-09-19T15:47:53;2.90;;;1.37;;
21601;SDS011;10963;50.934;4.668;2023-09-19T15:50:19;4.00;;;1.13;;
21601;SDS011;10963;50.934;4.668;2023-09-19T15:52:49;3.33;;;1.30;;
21601;SDS011;10963;50.934;4.668;2023-09-19T15:55:23;3.80;;;1.40;;
21601;SDS011;10963;50.934;4.668;2023-09-19T15:57:51;2.83;;;1.37;;
21601;SDS011;10963;50.934;4.668;2023-09-19T16:00:18;2.20;;;1.30;;
21601;SDS011;10963;50.934;4.668;2023-09-19T16:02:47;6.30;;;1.70;;
21601;SDS011;10963;50.934;4.668;2023-09-19T16:05:15;2.90;;;1.50;;
21601;SDS011;10963;50.934;4.668;2023-09-19T16:07:41;3.27;;;1.30;;
21601;SDS011;10963;50.934;4.668;2023-09-19T16:10:07;1.47;;;1.00;;
21601;SDS011;10963;50.934;4.668;2023-09-19T16:12:33;3.10;;;1.10;;
21601;SDS011;10963;50.934;4.668;2023-09-19T16:14:59;1.67;;;1.10;;
21601;SDS011;10963;50.934;4.668;2023-09-19T16:17:25;4.57;;;1.40;;
21601;SDS011;10963;50.934;4.668;2023-09-19T16:19:50;4.13;;;1.33;;
21601;SDS011;10963;50.934;4.668;2023-09-19T16:22:16;3.60;;;1.17;;